Warrensburg, MO (64093)

8:16 PM CDT on July 24, 2016 (GMT -0500)
Rolling Hills = Jay's Weather Station | | Change Station

Elev 863 ft 38.73 °N, 93.66 °W | Updated 1 minute ago

Clear
Clear
88.5 °F
Feels Like 103 °F
N
2.7
Wind Variable Wind from NNE

Today
High -- | Low -- °F
--% Chance of Precip.
Yesterday
High -- | Low -- °F
Precip. -- in
Pressure 29.93 in
Visibility 10.0 miles
Clouds Clear
Heat Index 103 °F
Dew Point 79 °F
Humidity 73%
Rainfall 0.00 in
Snow Depth Not available.
6:09 AM 8:32 PM
Waning Gibbous, 71% visible
METAR KRCM 250015Z AUTO 36006KT 10SM CLR 30/25 A2993 RMK AO2 LTG DSNT SW
Pressure 29.93 in
Visibility 10.0 miles
Clouds Clear
Heat Index 103 °F
Dew Point 79 °F
Humidity 73%
Rainfall 0.00 in
Snow Depth Not available.
6:09 AM 8:32 PM
Waning Gibbous, 71% visible
METAR KRCM 250015Z AUTO 36006KT 10SM CLR 30/25 A2993 RMK AO2 LTG DSNT SW

10-Day Weather Forecast

Almanac

Astronomy

Jul. 24, 2016 Rise Set
Actual Time
Civil Twilight
Nautical Twilight
Astronomical Twilight
Moon
Length of Visible Light
Length of Day
Tomorrow will be .
, % of the Moon is Illuminated

Today's Extremes

State Highs State Lows

Community

WunderPhotos

Upload Photos

1,927,225 photos uploaded!

WunderBlog® & News

Nearby

Air Quality

  Air Quality AQ Index Pollutant
Not available.

Snow Depth

Station Depth Elevation

Earthquake Activity

City Distance Mag. Time & Date
Minimum magnitude displayed is 2.5.

Coastal Water Temperatures

Place Temperature

Stations

Nearby Weather Stations

Station Location Temp. Windchill Dew Point Humidity Wind Precip. Elev Updated Type
                   

Watches & Warnings

There are currently no watches in effect.